Offerle, Kansas
Current Conditions -  °F | °C
As of 1:52 AM on Sunday 26 Oct 2014 (Local Time) from KDDC Reporting Station
Clear Clear  
Wind Chill: 63°   Ceiling: Unl
Heat Index: 63°   Visibility: 10mi
Dew Point: 48°   Wind: 9mph
Humidity: 58%   Direction: 200°SSW
Pressure: 29.9"   Gusts: NA
Location:  37.89°N, 99.56°W
Report Text: KDDC 260652Z AUTO 20008KT 10SM CLR 17/09 A2990 RMK AO2 SLP094 T01720089
Loading
Personal Weather Stations






























Interactive Weather Map
Tropical Storm Tracking
New forecast layout! Learn more

10-Day Weather Forecast

Advertisements
Track Severe Weather on mobile